Chaseley, ND (58423)

9:33 PM CDT on September 02, 2014 (GMT -0500)
APRSWXNET Cathay ND US | Change Station
CLOSE
Current Station
Personal Weather Station
Location: Cathay, ND
Elevation: 1594 ft
Nearby Weather Stations

Elev 1594 ft 47.58 °N, 99.42 °W | Updated 32 minutes ago

Clear
Clear
63 °F
Feels Like 63 °F
N
4
Wind Variable Wind from WSW
Gusts 9.0 mph

Today
High -- | Low -- °F
--% Chance of Precip.
Yesterday
High -- | Low -- °F
Precip. -- in
6:59 AM 8:17 PM
First Quarter, 57% visible
Pressure 29.75 in
Visibility 10.0 miles
Clouds Clear
Dew Point 54 °F
Humidity 72%
Rainfall 0.00 in
Snow Depth Not available.
UV 0 out of 12
Pollen 9.70 out of 12
Air Quality Not available.
Flu Activity Not available.
METAR K5H4 030215Z AUTO 27004KT 10SM CLR 17/10 A2975 RMK AO2

More Conditions Fewer Conditions

Pressure 29.75 in
Visibility 10.0 miles
Clouds Clear
Dew Point 54 °F
Humidity 72%
Rainfall 0.00 in
Snow Depth Not available.
UV 0 out of 12
Pollen 9.70 out of 12
Air Quality Not available.
Flu Activity Not available.
METAR K5H4 030215Z AUTO 27004KT 10SM CLR 17/10 A2975 RMK AO2

More Conditions Fewer Conditions

10-Day Weather Forecast

Almanac

Astronomy

Sep. 02, 2014 Rise Set
Actual Time 6:59 AM CDT 8:17 PM CDT
Civil Twilight 6:27 AM CDT 8:49 PM CDT
Nautical Twilight 5:49 AM CDT 9:27 PM CDT
Astronomical Twilight 5:08 AM CDT 10:08 PM CDT
Moon 3:14 PM CDT (9/2) No Moon Set
Length of Visible Light 14h 21m
Length of Day
13h 18m
Tomorrow will be 3m 18s shorter.
First Quarter, 57% of the Moon is Illuminated
Today
First Quarter
Sep 8
Full
Sep 15
Last Quarter
Sep 24
New
Oct 1
First Quarter

Today's Extremes

State Highs State Lows

Community

WunderPhotos

Upload Photos

1,749,845 photos uploaded!

Nearby

Snow Depth

Station Depth Elevation
No new snow has been reported.

Earthquake Activity

City Distance Mag. Time & Date
No recent earthquake activity has been reported nearby.
Minimum magnitude displayed is 2.5.

Coastal Water Temperatures

Place Temperature
No Stations Reporting

Nearby Weather Stations